createdAt,value
2017-11-24T00:00:08.999Z,11.80
2017-11-24T00:02:42.616Z,11.80
2017-11-24T00:05:16.166Z,11.70
2017-11-24T00:07:49.841Z,11.70
2017-11-24T00:10:24.258Z,11.70
2017-11-24T00:12:58.058Z,11.70
2017-11-24T00:15:31.863Z,11.70
2017-11-24T00:18:06.155Z,11.70
2017-11-24T00:20:39.620Z,11.70
2017-11-24T00:23:13.974Z,11.80
2017-11-24T00:25:47.910Z,11.70
2017-11-24T00:28:21.667Z,11.70
2017-11-24T00:30:55.256Z,11.70
2017-11-24T00:33:29.018Z,11.60
2017-11-24T00:36:02.620Z,11.60
2017-11-24T00:38:36.329Z,11.60
2017-11-24T00:41:09.800Z,11.70
2017-11-24T00:43:43.429Z,11.70
2017-11-24T00:46:16.978Z,11.70
2017-11-24T00:48:50.514Z,11.60
2017-11-24T00:51:23.983Z,11.70
2017-11-24T00:53:57.532Z,11.70
2017-11-24T00:56:31.215Z,11.70
2017-11-24T00:59:04.787Z,11.70
2017-11-24T01:01:38.380Z,11.60
2017-11-24T01:04:12.706Z,11.70
2017-11-24T01:06:46.427Z,11.70
2017-11-24T01:09:20.760Z,11.70
2017-11-24T01:11:54.212Z,11.70
2017-11-24T01:14:28.487Z,11.70
2017-11-24T01:17:02.171Z,11.70
2017-11-24T01:19:35.780Z,11.70
2017-11-24T01:22:09.370Z,11.70
2017-11-24T01:24:43.699Z,11.70
2017-11-24T01:27:17.406Z,11.70
2017-11-24T01:29:50.899Z,11.80
2017-11-24T01:32:24.458Z,11.70
2017-11-24T01:34:58.014Z,11.70
2017-11-24T01:37:31.898Z,11.70
2017-11-24T01:40:05.612Z,11.70
2017-11-24T01:42:39.113Z,11.60
2017-11-24T01:45:12.802Z,11.60
2017-11-24T01:47:47.018Z,11.60
2017-11-24T01:50:21.214Z,11.60
2017-11-24T01:52:54.954Z,11.70
2017-11-24T01:55:28.643Z,11.70
2017-11-24T01:58:02.411Z,11.70
2017-11-24T02:00:36.056Z,11.70
2017-11-24T02:03:09.758Z,11.70
2017-11-24T02:05:44.239Z,11.60
2017-11-24T02:08:17.867Z,11.60
2017-11-24T02:10:51.487Z,11.60
2017-11-24T02:13:25.052Z,11.60
2017-11-24T02:15:58.687Z,11.70
2017-11-24T02:18:32.378Z,11.70
2017-11-24T02:21:05.984Z,11.60
2017-11-24T02:23:39.684Z,11.60
2017-11-24T02:26:14.216Z,11.60
2017-11-24T02:28:47.813Z,11.60
2017-11-24T02:31:21.351Z,11.60
2017-11-24T02:33:55.016Z,11.50
2017-11-24T02:36:28.614Z,11.50
2017-11-24T02:39:02.188Z,11.50
2017-11-24T02:41:36.615Z,11.60
2017-11-24T02:44:10.192Z,11.50
2017-11-24T02:46:43.845Z,11.60
2017-11-24T02:49:17.399Z,11.60
2017-11-24T02:51:51.011Z,11.60
2017-11-24T02:54:24.474Z,11.70
2017-11-24T02:56:58.133Z,11.70
2017-11-24T02:59:31.607Z,11.70
2017-11-24T03:02:05.231Z,11.70
2017-11-24T03:04:38.731Z,11.70
2017-11-24T03:07:12.475Z,11.70
2017-11-24T03:09:46.199Z,11.80
2017-11-24T03:12:19.806Z,11.80
2017-11-24T03:14:54.354Z,11.80
2017-11-24T03:17:28.123Z,11.80
2017-11-24T03:20:01.771Z,11.90
2017-11-24T03:22:35.471Z,11.90
2017-11-24T03:25:09.175Z,11.90
2017-11-24T03:27:43.667Z,11.90
2017-11-24T03:30:18.076Z,11.90
2017-11-24T03:32:51.823Z,11.90
2017-11-24T03:35:26.223Z,11.90
2017-11-24T03:37:59.790Z,11.90
2017-11-24T03:40:33.440Z,12.00
2017-11-24T03:43:07.147Z,11.90
2017-11-24T03:45:40.822Z,11.90
2017-11-24T03:48:14.403Z,11.90
2017-11-24T03:50:47.954Z,11.90
2017-11-24T03:53:22.163Z,11.80
2017-11-24T03:55:56.583Z,11.80
2017-11-24T03:58:30.082Z,11.80
2017-11-24T04:01:04.481Z,11.80
2017-11-24T04:03:38.182Z,11.80
2017-11-24T04:06:11.912Z,11.80
2017-11-24T04:08:45.464Z,11.90
2017-11-24T04:11:19.002Z,11.80
2017-11-24T04:13:53.514Z,11.80
2017-11-24T04:16:27.822Z,11.80
2017-11-24T04:19:01.354Z,11.80
2017-11-24T04:21:34.987Z,11.80
2017-11-24T04:24:08.758Z,11.80
2017-11-24T04:26:42.455Z,11.80
2017-11-24T04:29:16.138Z,11.80
2017-11-24T04:31:49.834Z,11.80
2017-11-24T04:34:23.462Z,11.80
2017-11-24T04:36:57.208Z,11.70
2017-11-24T04:39:30.870Z,11.80
2017-11-24T04:42:05.155Z,11.80
2017-11-24T04:44:38.788Z,11.80
2017-11-24T04:47:12.498Z,11.80
2017-11-24T04:49:46.071Z,11.80
2017-11-24T04:52:19.691Z,11.80
2017-11-24T04:54:53.634Z,11.80
2017-11-24T04:57:27.307Z,11.80
2017-11-24T05:00:00.902Z,11.80
2017-11-24T05:02:34.503Z,11.70
2017-11-24T05:05:08.067Z,11.70
2017-11-24T05:07:41.706Z,11.80
2017-11-24T05:10:15.270Z,11.80
2017-11-24T05:12:48.910Z,11.80
2017-11-24T05:15:22.480Z,11.80
2017-11-24T05:17:56.007Z,11.90
2017-11-24T05:20:29.606Z,11.90
2017-11-24T05:23:03.166Z,11.90
2017-11-24T05:25:36.871Z,11.90
2017-11-24T05:28:10.615Z,11.90
2017-11-24T05:30:44.115Z,11.90
2017-11-24T05:33:18.244Z,11.80
2017-11-24T05:35:52.722Z,11.80
2017-11-24T05:38:26.743Z,11.80
2017-11-24T05:41:01.282Z,11.90
2017-11-24T05:43:34.883Z,11.90
2017-11-24T05:46:08.481Z,11.90
2017-11-24T05:48:42.192Z,11.80
2017-11-24T05:51:15.891Z,11.90
2017-11-24T05:53:49.490Z,11.80
2017-11-24T05:56:23.058Z,11.90
2017-11-24T05:58:56.795Z,11.80
2017-11-24T06:01:30.295Z,11.80
2017-11-24T06:04:03.897Z,11.80
2017-11-24T06:06:38.513Z,11.90
2017-11-24T06:09:12.091Z,11.80
2017-11-24T06:11:45.718Z,11.90
2017-11-24T06:14:19.295Z,11.80
2017-11-24T06:16:52.879Z,11.70
2017-11-24T06:19:26.523Z,11.70
2017-11-24T06:22:00.123Z,11.70
2017-11-24T06:24:34.542Z,11.70
2017-11-24T06:27:08.094Z,11.70
2017-11-24T06:29:42.434Z,11.70
2017-11-24T06:32:16.027Z,11.80
2017-11-24T06:34:49.672Z,11.70
2017-11-24T06:37:23.263Z,11.70
2017-11-24T06:39:56.866Z,11.70
2017-11-24T06:42:30.572Z,11.70
2017-11-24T06:45:04.171Z,11.70
2017-11-24T06:47:37.875Z,11.80
2017-11-24T06:50:11.548Z,11.80
2017-11-24T06:52:45.075Z,11.80
2017-11-24T06:55:18.676Z,11.80
2017-11-24T06:57:52.175Z,11.80
2017-11-24T07:00:26.390Z,11.80
2017-11-24T07:02:59.975Z,11.80
2017-11-24T07:05:33.592Z,11.80
2017-11-24T07:08:07.215Z,11.70
2017-11-24T07:10:40.690Z,11.70
2017-11-24T07:13:14.498Z,11.70
2017-11-24T07:15:48.060Z,11.70
2017-11-24T07:18:21.763Z,11.70
2017-11-24T07:20:55.367Z,11.80
2017-11-24T07:23:28.948Z,11.80
2017-11-24T07:26:02.721Z,11.80
2017-11-24T07:28:36.407Z,11.70
2017-11-24T07:31:10.010Z,11.70
2017-11-24T07:33:44.325Z,11.70
2017-11-24T07:36:18.011Z,11.70
2017-11-24T07:38:51.590Z,11.80
2017-11-24T07:41:25.344Z,11.80
2017-11-24T07:43:59.049Z,11.90
2017-11-24T07:46:33.534Z,11.80
2017-11-24T07:49:07.165Z,11.80
2017-11-24T07:51:40.967Z,11.80
2017-11-24T07:54:14.567Z,11.80
2017-11-24T07:56:48.175Z,11.90
2017-11-24T07:59:21.619Z,11.80
2017-11-24T08:01:55.237Z,11.90
2017-11-24T08:04:29.303Z,11.90
2017-11-24T08:07:02.879Z,11.90
2017-11-24T08:09:36.683Z,11.90
2017-11-24T08:12:10.592Z,11.90
2017-11-24T08:14:44.395Z,11.90
2017-11-24T08:17:18.818Z,11.90
2017-11-24T08:19:53.235Z,11.90
2017-11-24T08:22:26.842Z,11.90
2017-11-24T08:25:00.334Z,11.90
2017-11-24T08:27:33.826Z,11.90
2017-11-24T08:30:07.448Z,11.90
2017-11-24T08:32:41.039Z,11.90
2017-11-24T08:35:14.591Z,11.90
2017-11-24T08:37:48.115Z,11.90
2017-11-24T08:40:21.800Z,11.90
2017-11-24T08:42:55.347Z,11.90
2017-11-24T08:45:29.114Z,12.00
2017-11-24T08:48:08.563Z,12.00
2017-11-24T08:50:42.191Z,12.00
2017-11-24T08:53:15.883Z,12.00
2017-11-24T08:55:50.203Z,12.10
2017-11-24T08:58:23.769Z,12.10
2017-11-24T09:00:57.403Z,12.10
2017-11-24T09:03:31.074Z,12.20
2017-11-24T09:06:04.607Z,12.20
2017-11-24T09:08:38.923Z,12.30
2017-11-24T09:11:12.491Z,12.30
2017-11-24T09:13:46.096Z,12.30
2017-11-24T09:16:19.735Z,12.30
2017-11-24T09:18:53.294Z,12.30
2017-11-24T09:21:26.822Z,12.30
2017-11-24T09:24:01.119Z,12.40
2017-11-24T09:26:35.526Z,12.40
2017-11-24T09:29:09.369Z,12.40
2017-11-24T09:31:43.175Z,12.40
2017-11-24T09:34:16.775Z,12.50
2017-11-24T09:36:50.478Z,12.50
2017-11-24T09:39:23.928Z,12.50
2017-11-24T09:41:57.379Z,12.40
2017-11-24T09:44:31.895Z,12.40
2017-11-24T09:47:05.442Z,12.40
2017-11-24T09:49:39.202Z,12.40
2017-11-24T09:52:12.877Z,12.50
2017-11-24T09:54:46.606Z,12.50
2017-11-24T09:57:20.258Z,12.50
2017-11-24T09:59:53.823Z,12.50
2017-11-24T10:02:27.363Z,12.50
2017-11-24T10:05:01.010Z,12.50
2017-11-24T10:07:34.499Z,12.50
2017-11-24T10:10:08.928Z,12.50
2017-11-24T10:12:42.499Z,12.50
2017-11-24T10:15:16.125Z,12.50
2017-11-24T10:17:49.807Z,12.60
2017-11-24T10:20:23.479Z,12.50
2017-11-24T10:22:57.695Z,12.50
2017-11-24T10:25:31.311Z,12.60
2017-11-24T10:28:05.635Z,12.60
2017-11-24T10:30:39.371Z,12.60
2017-11-24T10:33:13.143Z,12.60
2017-11-24T10:35:46.750Z,12.60
2017-11-24T10:38:20.383Z,12.60
2017-11-24T10:40:54.771Z,12.60
2017-11-24T10:43:28.362Z,12.60
2017-11-24T10:46:01.914Z,12.60
2017-11-24T10:48:35.599Z,12.60
2017-11-24T10:51:09.171Z,12.70
2017-11-24T10:53:42.559Z,12.60
2017-11-24T10:56:16.095Z,12.70
2017-11-24T10:58:49.661Z,12.60
2017-11-24T11:01:23.258Z,12.60
2017-11-24T11:03:56.898Z,12.60
2017-11-24T11:06:30.561Z,12.60
2017-11-24T11:09:04.791Z,12.60
2017-11-24T11:11:38.374Z,12.60
2017-11-24T11:14:11.911Z,12.70
2017-11-24T11:16:45.478Z,12.60
2017-11-24T11:19:19.062Z,12.60
2017-11-24T11:21:52.732Z,12.70
2017-11-24T11:24:26.170Z,12.70
2017-11-24T11:27:00.031Z,12.70
2017-11-24T11:29:33.832Z,12.60
2017-11-24T11:32:07.430Z,12.60
2017-11-24T11:34:40.983Z,12.60
2017-11-24T11:37:15.523Z,12.70
2017-11-24T11:39:49.242Z,12.60
2017-11-24T11:42:22.853Z,12.70
2017-11-24T11:44:56.469Z,12.70
2017-11-24T11:47:30.019Z,12.60
2017-11-24T11:50:04.583Z,12.60
2017-11-24T11:52:38.291Z,12.60
2017-11-24T11:55:12.086Z,12.70
2017-11-24T11:57:45.663Z,12.60
2017-11-24T12:00:19.271Z,12.70
2017-11-24T12:02:52.847Z,12.70
2017-11-24T12:05:26.595Z,12.70
2017-11-24T12:08:00.170Z,12.70
2017-11-24T12:10:33.775Z,12.70
2017-11-24T12:13:07.826Z,12.70
2017-11-24T12:15:41.430Z,12.70
2017-11-24T12:18:15.054Z,12.70
2017-11-24T12:20:49.427Z,12.70
2017-11-24T12:23:23.768Z,12.70
2017-11-24T12:25:57.363Z,12.70
2017-11-24T12:28:31.635Z,12.70
2017-11-24T12:31:05.265Z,12.70
2017-11-24T12:33:38.874Z,12.70
2017-11-24T12:36:12.468Z,12.60
2017-11-24T12:38:45.911Z,12.70
2017-11-24T12:41:20.350Z,12.70
2017-11-24T12:43:53.882Z,12.70
2017-11-24T12:46:27.491Z,12.70
2017-11-24T12:49:01.047Z,12.70
2017-11-24T12:51:34.670Z,12.70
2017-11-24T12:54:08.261Z,12.70
2017-11-24T12:56:41.887Z,12.70
2017-11-24T12:59:15.560Z,12.70
2017-11-24T13:01:49.363Z,12.80
2017-11-24T13:04:22.846Z,12.70
2017-11-24T13:06:57.210Z,12.70
2017-11-24T13:09:30.878Z,12.80
2017-11-24T13:12:04.475Z,12.70
2017-11-24T13:14:38.799Z,12.70
2017-11-24T13:17:12.531Z,12.70
2017-11-24T13:19:46.146Z,12.70
2017-11-24T13:22:19.838Z,12.70
2017-11-24T13:24:53.456Z,12.60
2017-11-24T13:27:27.942Z,12.60
2017-11-24T13:30:01.463Z,12.60
2017-11-24T13:32:34.903Z,12.70
2017-11-24T13:35:08.664Z,12.70
2017-11-24T13:37:42.758Z,12.70
2017-11-24T13:40:16.402Z,12.70
2017-11-24T13:42:49.979Z,12.60
2017-11-24T13:45:23.574Z,12.70
2017-11-24T13:47:57.283Z,12.70
2017-11-24T13:50:31.090Z,12.60
2017-11-24T13:53:04.656Z,12.60
2017-11-24T13:55:38.164Z,12.60
2017-11-24T13:58:11.834Z,12.60
2017-11-24T14:00:45.291Z,12.60
2017-11-24T14:03:18.995Z,12.60
2017-11-24T14:05:52.898Z,12.60
2017-11-24T14:08:27.220Z,12.50
2017-11-24T14:11:00.919Z,12.50
2017-11-24T14:13:34.523Z,12.50
2017-11-24T14:16:08.810Z,12.40
2017-11-24T14:18:42.643Z,12.40
2017-11-24T14:21:16.348Z,12.40
2017-11-24T14:23:49.947Z,12.30
2017-11-24T14:26:23.434Z,12.30
2017-11-24T14:28:57.008Z,12.30
2017-11-24T14:31:31.334Z,12.20
2017-11-24T14:34:05.652Z,12.30
2017-11-24T14:36:39.282Z,12.20
2017-11-24T14:39:12.780Z,12.20
2017-11-24T14:41:46.279Z,12.20
2017-11-24T14:44:20.405Z,12.20
2017-11-24T14:46:54.095Z,12.10
2017-11-24T14:49:27.699Z,12.10
2017-11-24T14:52:01.370Z,12.10
2017-11-24T14:54:34.998Z,12.10
2017-11-24T14:57:08.551Z,12.10
2017-11-24T14:59:42.202Z,12.10
2017-11-24T15:02:16.007Z,12.10
2017-11-24T15:04:49.714Z,12.10
2017-11-24T15:07:23.370Z,12.00
2017-11-24T15:09:57.023Z,12.00
2017-11-24T15:12:30.527Z,12.00
2017-11-24T15:15:04.123Z,12.00
2017-11-24T15:17:37.819Z,12.00
2017-11-24T15:20:12.206Z,11.90
2017-11-24T15:22:45.939Z,11.90
2017-11-24T15:25:19.495Z,11.90
2017-11-24T15:27:53.778Z,11.90
2017-11-24T15:30:27.563Z,11.90
2017-11-24T15:33:01.275Z,11.90
2017-11-24T15:35:35.551Z,11.90
2017-11-24T15:38:09.137Z,11.90
2017-11-24T15:40:42.676Z,11.90
2017-11-24T15:43:16.383Z,11.90
2017-11-24T15:45:50.095Z,11.90
2017-11-24T15:48:23.691Z,11.90
2017-11-24T15:50:57.391Z,11.80
2017-11-24T15:53:30.995Z,11.80
2017-11-24T15:56:05.325Z,11.80
2017-11-24T15:58:39.021Z,11.90
2017-11-24T16:01:12.629Z,11.80
2017-11-24T16:03:46.199Z,11.80
2017-11-24T16:06:19.798Z,11.80
2017-11-24T16:08:53.419Z,11.80
2017-11-24T16:11:27.033Z,11.80
2017-11-24T16:14:00.750Z,11.80
2017-11-24T16:16:34.531Z,11.80
2017-11-24T16:19:08.130Z,11.80
2017-11-24T16:21:41.935Z,11.80
2017-11-24T16:24:15.534Z,11.80
2017-11-24T16:26:49.111Z,11.80
2017-11-24T16:29:23.008Z,11.80
2017-11-24T16:31:56.543Z,11.70
2017-11-24T16:34:30.106Z,11.70
2017-11-24T16:37:03.746Z,11.70
2017-11-24T16:39:37.355Z,11.70
2017-11-24T16:42:10.843Z,11.70
2017-11-24T16:44:44.514Z,11.70
2017-11-24T16:47:18.384Z,11.70
2017-11-24T16:49:52.944Z,11.60
2017-11-24T16:52:26.547Z,11.60
2017-11-24T16:55:01.007Z,11.60
2017-11-24T16:57:34.598Z,11.60
2017-11-24T17:00:08.040Z,11.60
2017-11-24T17:02:41.613Z,11.60
2017-11-24T17:05:15.300Z,11.60
2017-11-24T17:07:48.900Z,11.50
2017-11-24T17:10:22.479Z,11.60
2017-11-24T17:12:55.998Z,11.60
2017-11-24T17:15:29.583Z,11.60
2017-11-24T17:18:04.020Z,11.60
2017-11-24T17:20:37.624Z,11.60
2017-11-24T17:23:11.222Z,11.60
2017-11-24T17:25:44.815Z,11.60
2017-11-24T17:28:18.534Z,11.60
2017-11-24T17:30:52.078Z,11.60
2017-11-24T17:33:25.728Z,11.50
2017-11-24T17:35:59.338Z,11.50
2017-11-24T17:38:32.939Z,11.50
2017-11-24T17:41:06.938Z,11.50
2017-11-24T17:43:40.644Z,11.50
2017-11-24T17:46:14.299Z,11.50
2017-11-24T17:48:47.827Z,11.40
2017-11-24T17:51:21.339Z,11.40
2017-11-24T17:53:54.907Z,11.50
2017-11-24T17:56:28.546Z,11.50
2017-11-24T17:59:02.142Z,11.50
2017-11-24T18:01:36.463Z,11.50
2017-11-24T18:04:10.167Z,11.50
2017-11-24T18:06:43.726Z,11.50
2017-11-24T18:09:17.326Z,11.50
2017-11-24T18:11:51.071Z,11.50
2017-11-24T18:14:26.003Z,11.40
2017-11-24T18:16:59.603Z,11.50
2017-11-24T18:19:33.204Z,11.40
2017-11-24T18:22:06.716Z,11.40
2017-11-24T18:24:40.412Z,11.40
2017-11-24T18:27:13.862Z,11.50
2017-11-24T18:29:47.598Z,11.40
2017-11-24T18:32:21.207Z,11.50
2017-11-24T18:34:55.495Z,11.40
2017-11-24T18:37:29.182Z,11.40
2017-11-24T18:40:03.001Z,11.40
2017-11-24T18:42:36.622Z,11.40
2017-11-24T18:45:10.239Z,11.40
2017-11-24T18:47:43.694Z,11.40
2017-11-24T18:50:17.282Z,11.40
2017-11-24T18:52:51.755Z,11.40
2017-11-24T18:55:25.462Z,11.30
2017-11-24T18:57:59.263Z,11.40
2017-11-24T19:00:32.766Z,11.40
2017-11-24T19:03:07.083Z,11.40
2017-11-24T19:05:40.671Z,11.40
2017-11-24T19:08:14.286Z,11.40
2017-11-24T19:10:47.730Z,11.30
2017-11-24T19:13:21.387Z,11.30
2017-11-24T19:15:54.987Z,11.30
2017-11-24T19:18:28.492Z,11.30
2017-11-24T19:21:02.183Z,11.30
2017-11-24T19:23:35.688Z,11.30
2017-11-24T19:26:09.283Z,11.30
2017-11-24T19:28:42.882Z,11.30
2017-11-24T19:31:16.433Z,11.30
2017-11-24T19:33:49.958Z,11.20
2017-11-24T19:36:24.286Z,11.30
2017-11-24T19:38:57.864Z,11.20
2017-11-24T19:41:31.443Z,11.30
2017-11-24T19:44:05.104Z,11.30
2017-11-24T19:46:38.703Z,11.30
2017-11-24T19:49:13.228Z,11.30
2017-11-24T19:51:46.831Z,11.20
2017-11-24T19:54:20.483Z,11.30
2017-11-24T19:56:54.030Z,11.30
2017-11-24T19:59:27.731Z,11.30
2017-11-24T20:02:01.403Z,11.20
2017-11-24T20:04:35.038Z,11.30
2017-11-24T20:07:08.739Z,11.30
2017-11-24T20:09:42.451Z,11.30
2017-11-24T20:12:16.902Z,11.30
2017-11-24T20:14:50.568Z,11.40
2017-11-24T20:17:24.271Z,11.30
2017-11-24T20:19:58.081Z,11.30
2017-11-24T20:22:31.674Z,11.30
2017-11-24T20:25:05.484Z,11.30
2017-11-24T20:27:40.515Z,11.30
2017-11-24T20:30:14.116Z,11.30
2017-11-24T20:32:48.535Z,11.30
2017-11-24T20:35:22.104Z,11.30
2017-11-24T20:37:55.743Z,11.30
2017-11-24T20:40:29.326Z,11.30
2017-11-24T20:43:02.943Z,11.30
2017-11-24T20:45:36.595Z,11.30
2017-11-24T20:48:10.934Z,11.30
2017-11-24T20:50:45.495Z,11.30
2017-11-24T20:53:19.286Z,11.30
2017-11-24T20:55:54.441Z,11.30
2017-11-24T20:58:28.743Z,11.20
2017-11-24T21:01:02.251Z,11.20
2017-11-24T21:03:36.557Z,11.20
2017-11-24T21:06:10.047Z,11.20
2017-11-24T21:08:43.866Z,11.20
2017-11-24T21:11:17.467Z,11.20
2017-11-24T21:13:50.963Z,11.20
2017-11-24T21:16:24.567Z,11.20
2017-11-24T21:18:58.259Z,11.20
2017-11-24T21:21:31.867Z,11.20
2017-11-24T21:24:05.415Z,11.20
2017-11-24T21:26:38.974Z,11.10
2017-11-24T21:29:12.670Z,11.20
2017-11-24T21:31:46.230Z,11.20
2017-11-24T21:34:19.770Z,11.30
2017-11-24T21:36:53.318Z,11.30
2017-11-24T21:39:27.179Z,11.20
2017-11-24T21:42:00.986Z,11.20
2017-11-24T21:44:34.755Z,11.20
2017-11-24T21:47:08.595Z,11.20
2017-11-24T21:49:42.200Z,11.20
2017-11-24T21:52:15.659Z,11.10
2017-11-24T21:54:49.290Z,11.10
2017-11-24T21:57:22.870Z,11.20
2017-11-24T21:59:57.288Z,11.30
2017-11-24T22:02:30.778Z,11.20
2017-11-24T22:05:04.527Z,11.30
2017-11-24T22:07:38.219Z,11.30
2017-11-24T22:10:11.883Z,11.20
2017-11-24T22:12:45.419Z,11.20
2017-11-24T22:15:19.122Z,11.10
2017-11-24T22:17:52.932Z,11.20
2017-11-24T22:20:26.527Z,11.20
2017-11-24T22:23:00.127Z,11.10
2017-11-24T22:25:34.247Z,11.20
2017-11-24T22:28:07.690Z,11.10
2017-11-24T22:30:42.603Z,11.20
2017-11-24T22:33:16.222Z,11.20
2017-11-24T22:35:49.874Z,11.20
2017-11-24T22:38:23.456Z,11.20
2017-11-24T22:40:57.038Z,11.10
2017-11-24T22:43:30.537Z,11.10
2017-11-24T22:46:04.278Z,11.10
2017-11-24T22:48:37.879Z,11.20
2017-11-24T22:51:11.386Z,11.20
2017-11-24T22:53:44.951Z,11.20
2017-11-24T22:56:18.578Z,11.10
2017-11-24T22:58:52.179Z,11.10
2017-11-24T23:01:25.779Z,11.10
2017-11-24T23:04:00.078Z,11.10
2017-11-24T23:06:33.912Z,11.00
2017-11-24T23:09:07.399Z,11.10
2017-11-24T23:11:41.083Z,11.00
2017-11-24T23:14:14.678Z,11.00
2017-11-24T23:16:48.310Z,11.00
2017-11-24T23:19:22.410Z,11.00
2017-11-24T23:21:56.023Z,11.10
2017-11-24T23:24:29.567Z,11.10
2017-11-24T23:27:03.917Z,11.20
2017-11-24T23:29:37.656Z,11.20
2017-11-24T23:32:11.351Z,11.20
2017-11-24T23:34:45.013Z,11.10
2017-11-24T23:37:19.470Z,11.00
2017-11-24T23:39:53.185Z,11.00
2017-11-24T23:42:26.878Z,11.10
2017-11-24T23:45:00.811Z,11.10
2017-11-24T23:47:35.206Z,11.10
2017-11-24T23:50:08.775Z,11.10
2017-11-24T23:52:42.426Z,11.10
2017-11-24T23:55:16.110Z,11.00
2017-11-24T23:57:49.623Z,11.00
